X  Sluiten METAR luchtvaart weer gegevens      EHRD Rotterdam The Hague Airport
Temperatuur
3°C Temperatuur
3°C Dauwpunt
100% Vochtigheid



Wind
14 KM/U
9 MPH
4 M/S
8 KTS



50°
NO
Huidig weer

Grotendeels bewolkt Grotendeels bewolkt
Luchtdruk 1017.92 (hPa) - 30.06 (inHg)
Zicht 4.3 (mijl) - 7 (km)
Vliegveld
Vliegveld code EHRD

Locatie : Rotterdam The Hague Airport
Afstand: 19 (km)

Metar:
EHRD 050055Z AUTO 05008KT 010V080 7000 BKN009 OVC010 03/03 Q1018 TEMPO 4000 BR

Tijd: 05-12-2022 01:55 CET